createdAt,value
2016-03-17T00:00:26.840Z,60
2016-03-17T00:01:27.843Z,60
2016-03-17T00:02:26.111Z,60
2016-03-17T00:03:24.392Z,60
2016-03-17T00:04:22.567Z,60
2016-03-17T00:05:20.851Z,60
2016-03-17T00:06:19.119Z,60
2016-03-17T00:07:17.512Z,60
2016-03-17T00:08:15.686Z,60
2016-03-17T00:09:14.064Z,60
2016-03-17T00:10:12.286Z,60
2016-03-17T00:11:13.288Z,60
2016-03-17T00:12:11.854Z,60
2016-03-17T00:13:10.357Z,60
2016-03-17T00:14:08.906Z,60
2016-03-17T00:15:07.549Z,60
2016-03-17T00:16:06.224Z,60
2016-03-17T00:17:05.024Z,60
2016-03-17T00:18:03.932Z,60
2016-03-17T00:19:02.577Z,60
2016-03-17T00:20:01.407Z,60
2016-03-17T00:21:02.425Z,60
2016-03-17T00:22:01.335Z,61
2016-03-17T00:23:00.274Z,61
2016-03-17T00:23:59.418Z,61
2016-03-17T00:24:58.327Z,61
2016-03-17T00:25:57.485Z,61
2016-03-17T00:26:56.425Z,61
2016-03-17T00:27:55.443Z,61
2016-03-17T00:28:54.478Z,61
2016-03-17T00:29:53.590Z,61
2016-03-17T00:30:54.593Z,61
2016-03-17T00:31:53.892Z,61
2016-03-17T00:32:53.192Z,61
2016-03-17T00:33:52.475Z,61
2016-03-17T00:34:51.759Z,61
2016-03-17T00:35:51.044Z,61
2016-03-17T00:36:50.375Z,61
2016-03-17T00:37:49.628Z,61
2016-03-17T00:38:49.036Z,61
2016-03-17T00:39:48.273Z,61
2016-03-17T00:40:49.307Z,61
2016-03-17T00:41:48.591Z,61
2016-03-17T00:42:47.890Z,62
2016-03-17T00:43:47.408Z,62
2016-03-17T00:44:46.967Z,62
2016-03-17T00:45:46.531Z,62
2016-03-17T00:46:46.050Z,62
2016-03-17T00:47:45.616Z,62
2016-03-17T00:48:45.165Z,62
2016-03-17T00:49:44.793Z,62
2016-03-17T00:50:45.749Z,62
2016-03-17T00:51:45.314Z,62
2016-03-17T00:52:44.833Z,62
2016-03-17T00:53:44.632Z,62
2016-03-17T00:54:44.431Z,62
2016-03-17T00:55:44.231Z,62
2016-03-17T00:56:44.031Z,62
2016-03-17T00:57:43.830Z,62
2016-03-17T00:58:43.614Z,62
2016-03-17T00:59:43.477Z,62
2016-03-17T01:00:44.494Z,62
2016-03-17T01:01:44.294Z,62
2016-03-17T01:02:44.094Z,63
2016-03-17T01:03:44.143Z,63
2016-03-17T01:04:44.193Z,63
2016-03-17T01:05:44.243Z,62
2016-03-17T01:06:44.167Z,63
2016-03-17T01:07:44.102Z,63
2016-03-17T01:08:44.277Z,63
2016-03-17T01:09:44.263Z,63
2016-03-17T01:10:45.266Z,63
2016-03-17T01:11:45.441Z,63
2016-03-17T01:12:45.397Z,63
2016-03-17T01:13:45.540Z,63
2016-03-17T01:14:45.590Z,63
2016-03-17T01:15:45.529Z,63
2016-03-17T01:16:45.596Z,63
2016-03-17T01:17:45.754Z,63
2016-03-17T01:18:45.710Z,63
2016-03-17T01:19:45.791Z,63
2016-03-17T01:20:46.809Z,63
2016-03-17T01:21:46.968Z,63
2016-03-17T01:22:47.173Z,63
2016-03-17T01:23:47.473Z,63
2016-03-17T01:24:47.804Z,63
2016-03-17T01:25:48.089Z,63
2016-03-17T01:26:48.403Z,63
2016-03-17T01:27:48.703Z,63
2016-03-17T01:28:49.003Z,63
2016-03-17T01:29:49.364Z,63
2016-03-17T01:30:50.367Z,63
2016-03-17T01:31:50.697Z,63
2016-03-17T01:32:50.982Z,63
2016-03-17T01:33:51.282Z,63
2016-03-17T01:34:51.596Z,63
2016-03-17T01:35:51.896Z,63
2016-03-17T01:36:52.211Z,63
2016-03-17T01:37:52.511Z,63
2016-03-17T01:38:52.827Z,63
2016-03-17T01:39:53.299Z,63
2016-03-17T01:40:54.191Z,63
2016-03-17T01:41:54.600Z,63
2016-03-17T01:42:54.791Z,63
2016-03-17T01:43:55.105Z,63
2016-03-17T01:44:55.530Z,63
2016-03-17T01:45:55.721Z,63
2016-03-17T01:46:56.129Z,63
2016-03-17T01:47:56.429Z,63
2016-03-17T01:48:56.618Z,63
2016-03-17T01:49:57.106Z,63
2016-03-17T01:50:57.999Z,63
2016-03-17T01:51:58.424Z,63
2016-03-17T01:52:58.615Z,63
2016-03-17T01:53:59.023Z,63
2016-03-17T01:54:59.214Z,63
2016-03-17T01:55:59.545Z,63
2016-03-17T01:56:59.969Z,63
2016-03-17T01:58:00.268Z,63
2016-03-17T01:59:00.349Z,63
2016-03-17T02:00:00.306Z,63
2016-03-17T02:01:01.417Z,63
2016-03-17T02:02:01.608Z,63
2016-03-17T02:03:01.922Z,63
2016-03-17T02:04:02.222Z,63
2016-03-17T02:05:02.693Z,63
2016-03-17T02:06:02.852Z,63
2016-03-17T02:07:03.152Z,63
2016-03-17T02:08:03.560Z,63
2016-03-17T02:09:03.876Z,63
2016-03-17T02:10:03.863Z,63
2016-03-17T02:11:04.928Z,63
2016-03-17T02:12:04.930Z,63
2016-03-17T02:13:05.091Z,63
2016-03-17T02:14:05.030Z,63
2016-03-17T02:15:05.111Z,63
2016-03-17T02:16:05.177Z,63
2016-03-17T02:17:05.194Z,63
2016-03-17T02:18:05.369Z,63
2016-03-17T02:20:05.406Z,63
2016-03-17T02:21:06.565Z,63
2016-03-17T02:22:06.582Z,63
2016-03-17T02:23:06.649Z,63
2016-03-17T02:24:06.588Z,63
2016-03-17T02:25:06.638Z,63
2016-03-17T02:26:06.688Z,63
2016-03-17T02:27:06.737Z,63
2016-03-17T02:28:06.787Z,63
2016-03-17T02:29:06.836Z,63
2016-03-17T02:30:06.948Z,63
2016-03-17T02:31:07.951Z,63
2016-03-17T02:32:08.001Z,63
2016-03-17T02:33:08.050Z,63
2016-03-17T02:34:08.115Z,63
2016-03-17T02:35:08.274Z,63
2016-03-17T02:36:08.230Z,63
2016-03-17T02:37:08.327Z,63
2016-03-17T02:38:08.314Z,63
2016-03-17T02:39:08.364Z,63
2016-03-17T02:40:08.600Z,63
2016-03-17T02:41:09.619Z,63
2016-03-17T02:42:09.558Z,63
2016-03-17T02:43:09.593Z,63
2016-03-17T02:44:09.674Z,63
2016-03-17T02:45:09.691Z,63
2016-03-17T02:46:09.757Z,63
2016-03-17T02:47:09.807Z,63
2016-03-17T02:48:09.857Z,63
2016-03-17T02:49:09.905Z,63
2016-03-17T02:50:10.033Z,63
2016-03-17T02:51:11.021Z,63
2016-03-17T02:52:11.195Z,63
2016-03-17T02:53:11.136Z,63
2016-03-17T02:54:11.185Z,63
2016-03-17T02:55:11.235Z,63
2016-03-17T02:56:11.315Z,63
2016-03-17T02:57:11.334Z,63
2016-03-17T02:58:11.398Z,63
2016-03-17T02:59:11.449Z,63
2016-03-17T03:00:11.545Z,63
2016-03-17T03:01:12.672Z,63
2016-03-17T03:02:12.612Z,63
2016-03-17T03:03:12.600Z,63
2016-03-17T03:04:12.821Z,63
2016-03-17T03:05:12.762Z,63
2016-03-17T03:06:12.748Z,63
2016-03-17T03:07:12.861Z,63
2016-03-17T03:08:12.926Z,63
2016-03-17T03:09:12.976Z,63
2016-03-17T03:10:13.336Z,63
2016-03-17T03:11:14.386Z,63
2016-03-17T03:12:14.405Z,63
2016-03-17T03:13:14.580Z,63
2016-03-17T03:14:14.504Z,63
2016-03-17T03:15:14.554Z,63
2016-03-17T03:16:14.602Z,63
2016-03-17T03:17:14.668Z,63
2016-03-17T03:18:14.702Z,63
2016-03-17T03:19:14.752Z,63
2016-03-17T03:20:14.863Z,63
2016-03-17T03:21:15.991Z,63
2016-03-17T03:22:16.182Z,63
2016-03-17T03:23:16.607Z,63
2016-03-17T03:26:17.396Z,63
2016-03-17T03:27:17.727Z,63
2016-03-17T03:28:18.026Z,63
2016-03-17T03:29:18.326Z,63
2016-03-17T03:30:18.798Z,63
2016-03-17T03:31:19.690Z,63
2016-03-17T03:32:19.990Z,63
2016-03-17T03:33:20.289Z,63
2016-03-17T03:34:20.605Z,63
2016-03-17T03:35:20.904Z,63
2016-03-17T03:36:21.079Z,63
2016-03-17T03:37:21.379Z,63
2016-03-17T03:38:21.682Z,63
2016-03-17T03:39:21.594Z,63
2016-03-17T03:40:21.694Z,63
2016-03-17T03:41:22.684Z,63
2016-03-17T03:42:22.986Z,63
2016-03-17T03:43:23.282Z,63
2016-03-17T03:44:23.593Z,63
2016-03-17T03:45:23.889Z,63
2016-03-17T03:46:24.199Z,63
2016-03-17T03:47:24.603Z,63
2016-03-17T03:48:24.918Z,63
2016-03-17T03:49:25.231Z,63
2016-03-17T03:50:25.514Z,63
2016-03-17T03:51:26.483Z,63
2016-03-17T03:52:26.892Z,63
2016-03-17T03:53:27.081Z,63
2016-03-17T03:54:27.505Z,63
2016-03-17T03:55:27.850Z,63
2016-03-17T03:56:27.993Z,63
2016-03-17T03:57:28.307Z,63
2016-03-17T03:58:28.732Z,63
2016-03-17T03:59:29.032Z,63
2016-03-17T04:00:29.269Z,63
2016-03-17T04:01:30.396Z,63
2016-03-17T04:02:30.587Z,63
2016-03-17T04:03:31.010Z,63
2016-03-17T04:04:31.201Z,63
2016-03-17T04:05:31.515Z,63
2016-03-17T04:06:31.815Z,63
2016-03-17T04:07:32.131Z,63
2016-03-17T04:08:32.430Z,63
2016-03-17T04:09:32.745Z,63
2016-03-17T04:10:33.108Z,63
2016-03-17T04:11:34.236Z,63
2016-03-17T04:12:34.535Z,63
2016-03-17T04:13:34.834Z,63
2016-03-17T04:14:34.994Z,63
2016-03-17T04:15:35.340Z,63
2016-03-17T04:16:35.639Z,63
2016-03-17T04:17:35.955Z,63
2016-03-17T04:18:36.270Z,63
2016-03-17T04:19:36.569Z,63
2016-03-17T04:20:37.056Z,63
2016-03-17T04:21:37.965Z,63
2016-03-17T04:22:38.108Z,63
2016-03-17T04:23:38.049Z,63
2016-03-17T04:24:38.099Z,63
2016-03-17T04:25:38.414Z,63
2016-03-17T04:26:38.713Z,63
2016-03-17T04:27:39.029Z,63
2016-03-17T04:28:39.328Z,63
2016-03-17T04:29:39.644Z,63
2016-03-17T04:30:40.005Z,63
2016-03-17T04:31:41.008Z,63
2016-03-17T04:32:41.323Z,63
2016-03-17T04:33:41.623Z,63
2016-03-17T04:34:42.062Z,63
2016-03-17T04:35:42.378Z,63
2016-03-17T04:36:42.709Z,63
2016-03-17T04:37:42.867Z,63
2016-03-17T04:38:43.292Z,63
2016-03-17T04:39:43.607Z,63
2016-03-17T04:40:43.845Z,63
2016-03-17T04:41:44.848Z,63
2016-03-17T04:42:45.163Z,63
2016-03-17T04:43:45.478Z,63
2016-03-17T04:44:45.762Z,63
2016-03-17T04:45:46.202Z,63
2016-03-17T04:46:46.392Z,63
2016-03-17T04:47:46.770Z,63
2016-03-17T04:48:47.007Z,63
2016-03-17T04:49:47.306Z,63
2016-03-17T04:50:47.669Z,64
2016-03-17T04:51:48.686Z,64
2016-03-17T04:52:49.361Z,64
2016-03-17T04:53:49.801Z,64
2016-03-17T04:54:50.366Z,64
2016-03-17T04:55:51.057Z,64
2016-03-17T04:56:51.607Z,64
2016-03-17T04:57:52.046Z,64
2016-03-17T04:58:52.615Z,64
2016-03-17T04:59:53.289Z,64
2016-03-17T05:00:53.932Z,64
2016-03-17T05:01:54.794Z,64
2016-03-17T05:02:55.422Z,63
2016-03-17T05:03:55.690Z,63
2016-03-17T05:04:55.974Z,63
2016-03-17T05:05:56.290Z,63
2016-03-17T05:06:56.698Z,63
2016-03-17T05:07:56.889Z,63
2016-03-17T05:08:57.203Z,63
2016-03-17T05:09:57.253Z,63
2016-03-17T05:10:57.475Z,63
2016-03-17T05:11:58.368Z,63
2016-03-17T05:12:58.543Z,63
2016-03-17T05:13:58.484Z,63
2016-03-17T05:14:58.533Z,63
2016-03-17T05:15:58.581Z,63
2016-03-17T05:16:58.632Z,63
2016-03-17T05:17:58.775Z,63
2016-03-17T05:18:58.747Z,63
2016-03-17T05:19:58.796Z,63
2016-03-17T05:20:58.908Z,63
2016-03-17T05:21:59.911Z,63
2016-03-17T05:22:59.976Z,63
2016-03-17T05:24:00.026Z,63
2016-03-17T05:25:00.075Z,63
2016-03-17T05:26:00.125Z,63
2016-03-17T05:27:00.174Z,63
2016-03-17T05:28:00.364Z,62
2016-03-17T05:29:00.039Z,62
2016-03-17T05:29:59.885Z,62
2016-03-17T05:30:59.826Z,62
2016-03-17T05:32:00.859Z,62
2016-03-17T05:33:00.660Z,63
2016-03-17T05:34:00.568Z,63
2016-03-17T05:35:00.727Z,63
2016-03-17T05:36:00.808Z,63
2016-03-17T05:37:00.732Z,63
2016-03-17T05:38:00.907Z,63
2016-03-17T05:39:00.832Z,63
2016-03-17T05:40:00.881Z,63
2016-03-17T05:41:01.009Z,63
2016-03-17T05:42:01.996Z,63
2016-03-17T05:43:02.312Z,63
2016-03-17T05:44:02.736Z,63
2016-03-17T05:45:02.926Z,63
2016-03-17T05:46:03.225Z,63
2016-03-17T05:47:03.525Z,63
2016-03-17T05:48:03.872Z,63
2016-03-17T05:49:04.155Z,63
2016-03-17T05:50:04.580Z,63
2016-03-17T05:51:04.832Z,63
2016-03-17T05:52:05.866Z,63
2016-03-17T05:53:06.135Z,63
2016-03-17T05:54:06.559Z,63
2016-03-17T05:55:06.750Z,63
2016-03-17T05:56:07.174Z,63
2016-03-17T05:57:07.364Z,63
2016-03-17T05:58:07.679Z,63
2016-03-17T05:59:07.979Z,63
2016-03-17T06:00:08.279Z,63
2016-03-17T06:01:08.641Z,63
2016-03-17T06:02:09.675Z,63
2016-03-17T06:03:09.708Z,63
2016-03-17T06:04:09.774Z,63
2016-03-17T06:05:09.824Z,63
2016-03-17T06:06:09.999Z,63
2016-03-17T06:07:10.032Z,63
2016-03-17T06:08:09.972Z,62
2016-03-17T06:09:09.771Z,62
2016-03-17T06:10:09.571Z,62
2016-03-17T06:11:09.434Z,62
2016-03-17T06:12:10.498Z,62
2016-03-17T06:13:10.001Z,62
2016-03-17T06:14:09.550Z,62
2016-03-17T06:15:09.195Z,62
2016-03-17T06:16:08.634Z,62
2016-03-17T06:17:08.309Z,62
2016-03-17T06:18:07.906Z,62
2016-03-17T06:19:07.392Z,62
2016-03-17T06:20:06.817Z,62
2016-03-17T06:21:06.429Z,62
2016-03-17T06:22:07.447Z,62
2016-03-17T06:23:07.012Z,62
2016-03-17T06:24:06.530Z,62
2016-03-17T06:25:06.189Z,62
2016-03-17T06:26:05.504Z,62
2016-03-17T06:27:04.663Z,62
2016-03-17T06:28:03.963Z,62
2016-03-17T06:29:03.246Z,62
2016-03-17T06:30:02.531Z,62
2016-03-17T06:31:02.002Z,62
2016-03-17T06:32:03.021Z,62
2016-03-17T06:33:02.196Z,62
2016-03-17T06:34:01.605Z,62
2016-03-17T06:35:00.888Z,62
2016-03-17T06:36:00.079Z,62
2016-03-17T06:36:59.361Z,62
2016-03-17T06:37:58.594Z,62
2016-03-17T06:38:57.879Z,62
2016-03-17T06:39:57.765Z,62
2016-03-17T06:40:56.627Z,62
2016-03-17T06:41:57.708Z,62
2016-03-17T06:42:56.898Z,62
2016-03-17T06:43:56.180Z,62
2016-03-17T06:44:55.479Z,62
2016-03-17T06:45:54.763Z,61
2016-03-17T06:46:53.813Z,61
2016-03-17T06:47:52.987Z,61
2016-03-17T06:48:52.005Z,61
2016-03-17T06:49:50.933Z,61
2016-03-17T06:50:50.030Z,61
2016-03-17T06:51:51.047Z,61
2016-03-17T06:52:50.097Z,61
2016-03-17T06:53:49.132Z,61
2016-03-17T06:54:48.274Z,61
2016-03-17T06:55:47.230Z,61
2016-03-17T06:56:46.232Z,61
2016-03-17T06:57:45.142Z,61
2016-03-17T06:58:44.082Z,61
2016-03-17T06:59:43.209Z,61
2016-03-17T07:00:41.947Z,61
2016-03-17T07:01:42.949Z,61
2016-03-17T07:02:41.748Z,61
2016-03-17T07:03:40.517Z,61
2016-03-17T07:04:39.301Z,61
2016-03-17T07:05:38.085Z,61
2016-03-17T07:06:36.884Z,61
2016-03-17T07:07:35.669Z,61
2016-03-17T07:08:34.453Z,61
2016-03-17T07:09:33.284Z,61
2016-03-17T07:10:32.209Z,61
2016-03-17T07:11:33.117Z,61
2016-03-17T07:12:31.886Z,61
2016-03-17T07:13:30.779Z,61
2016-03-17T07:14:29.609Z,61
2016-03-17T07:15:28.347Z,61
2016-03-17T07:16:27.036Z,61
2016-03-17T07:17:25.821Z,61
2016-03-17T07:18:24.589Z,61
2016-03-17T07:20:22.219Z,61
2016-03-17T07:21:23.222Z,61
2016-03-17T07:22:22.037Z,61
2016-03-17T07:23:20.805Z,61
2016-03-17T07:24:19.605Z,60
2016-03-17T07:25:18.124Z,61
2016-03-17T07:26:16.955Z,60
2016-03-17T07:27:15.442Z,61
2016-03-17T07:28:14.257Z,61
2016-03-17T07:29:13.119Z,61
2016-03-17T07:30:11.856Z,60
2016-03-17T07:31:12.859Z,60
2016-03-17T07:32:11.440Z,60
2016-03-17T07:33:09.927Z,60
2016-03-17T07:34:08.492Z,60
2016-03-17T07:35:07.103Z,61
2016-03-17T07:36:05.778Z,60
2016-03-17T07:37:04.312Z,60
2016-03-17T07:38:02.968Z,60
2016-03-17T07:39:01.378Z,60
2016-03-17T07:39:59.959Z,60
2016-03-17T07:41:00.914Z,60
2016-03-17T07:41:59.510Z,60
2016-03-17T07:42:58.044Z,60
2016-03-17T07:43:56.594Z,60
2016-03-17T07:44:55.112Z,60
2016-03-17T07:45:53.647Z,60
2016-03-17T07:46:52.195Z,60
2016-03-17T07:47:50.855Z,60
2016-03-17T07:48:49.358Z,60
2016-03-17T07:49:47.828Z,60
2016-03-17T07:50:48.847Z,60
2016-03-17T07:51:47.538Z,60
2016-03-17T07:52:45.899Z,60
2016-03-17T07:53:44.558Z,60
2016-03-17T07:54:42.966Z,60
2016-03-17T07:55:41.533Z,60
2016-03-17T07:56:40.035Z,60
2016-03-17T07:57:38.569Z,60
2016-03-17T07:58:37.260Z,60
2016-03-17T07:59:35.809Z,60
2016-03-17T08:00:36.702Z,60
2016-03-17T08:01:35.360Z,60
2016-03-17T08:02:33.754Z,61
2016-03-17T08:03:32.570Z,60
2016-03-17T08:04:31.104Z,61
2016-03-17T08:05:29.856Z,61
2016-03-17T08:06:28.645Z,61
2016-03-17T08:07:27.460Z,61
2016-03-17T08:08:26.212Z,61
2016-03-17T08:09:25.090Z,61
2016-03-17T08:10:26.172Z,61
2016-03-17T08:11:24.846Z,61
2016-03-17T08:12:23.662Z,61
2016-03-17T08:13:22.789Z,61
2016-03-17T08:14:21.714Z,61
2016-03-17T08:15:20.795Z,61
2016-03-17T08:16:19.797Z,61
2016-03-17T08:17:18.831Z,61
2016-03-17T08:18:17.989Z,62
2016-03-17T08:19:17.337Z,62
2016-03-17T08:20:18.230Z,62
2016-03-17T08:21:17.639Z,62
2016-03-17T08:22:16.813Z,62
2016-03-17T08:23:16.222Z,62
2016-03-17T08:24:15.646Z,62
2016-03-17T08:25:15.305Z,62
2016-03-17T08:26:14.746Z,62
2016-03-17T08:27:14.280Z,63
2016-03-17T08:28:14.077Z,63
2016-03-17T08:29:14.049Z,63
2016-03-17T08:30:14.929Z,63
2016-03-17T08:31:14.978Z,63
2016-03-17T08:32:15.152Z,63
2016-03-17T08:33:15.093Z,64
2016-03-17T08:34:15.393Z,64
2016-03-17T08:35:15.693Z,64
2016-03-17T08:36:16.008Z,64
2016-03-17T08:37:16.557Z,64
2016-03-17T08:38:17.123Z,64
2016-03-17T08:39:18.001Z,64
2016-03-17T08:40:19.003Z,65
2016-03-17T08:41:20.068Z,65
2016-03-17T08:42:21.164Z,65
2016-03-17T08:43:22.447Z,65
2016-03-17T08:44:23.889Z,66
2016-03-17T08:45:25.375Z,66
2016-03-17T08:46:27.050Z,66
2016-03-17T08:47:24.817Z,66
2016-03-17T08:48:22.586Z,67
2016-03-17T08:49:20.667Z,67
2016-03-17T08:50:21.545Z,67
2016-03-17T08:51:19.828Z,67
2016-03-17T08:52:18.238Z,68
2016-03-17T08:53:16.631Z,68
2016-03-17T08:54:15.272Z,68
2016-03-17T08:55:13.697Z,68
2016-03-17T08:56:12.480Z,68
2016-03-17T08:57:11.374Z,68
2016-03-17T08:58:10.048Z,69
2016-03-17T08:59:09.144Z,69
2016-03-17T09:00:10.194Z,69
2016-03-17T09:01:09.307Z,69
2016-03-17T09:02:08.340Z,69
2016-03-17T09:03:07.390Z,69
2016-03-17T09:04:06.298Z,69
2016-03-17T09:05:05.349Z,68
2016-03-17T09:06:04.148Z,68
2016-03-17T09:07:02.906Z,68
2016-03-17T09:08:01.454Z,68
2016-03-17T09:09:00.037Z,67
2016-03-17T09:10:01.179Z,67
2016-03-17T09:10:59.354Z,67
2016-03-17T09:11:57.356Z,67
2016-03-17T09:12:55.390Z,66
2016-03-17T09:13:53.159Z,66
2016-03-17T09:14:50.928Z,66
2016-03-17T09:15:52.508Z,66
2016-03-17T09:16:54.104Z,65
2016-03-17T09:17:55.388Z,65
2016-03-17T09:18:56.781Z,65
2016-03-17T09:19:58.830Z,65
2016-03-17T09:20:58.864Z,65
2016-03-17T09:22:00.024Z,65
2016-03-17T09:23:01.198Z,65
2016-03-17T09:24:01.530Z,65
2016-03-17T09:25:02.329Z,64
2016-03-17T09:26:03.164Z,64
2016-03-17T09:27:03.712Z,64
2016-03-17T09:28:04.262Z,64
2016-03-17T09:29:04.906Z,64
2016-03-17T09:30:06.003Z,64
2016-03-17T09:31:06.208Z,64
2016-03-17T09:32:06.492Z,64
2016-03-17T09:33:06.808Z,64
2016-03-17T09:34:07.107Z,64
2016-03-17T09:35:07.438Z,64
2016-03-17T09:36:07.706Z,64
2016-03-17T09:37:08.053Z,64
2016-03-17T09:38:08.352Z,64
2016-03-17T09:39:08.683Z,64
2016-03-17T09:40:09.717Z,64
2016-03-17T09:41:10.001Z,64
2016-03-17T09:42:10.332Z,63
2016-03-17T09:43:10.350Z,63
2016-03-17T09:44:10.415Z,63
2016-03-17T09:45:10.574Z,63
2016-03-17T09:46:10.514Z,63
2016-03-17T09:47:10.626Z,63
2016-03-17T09:48:10.629Z,63
2016-03-17T09:49:10.741Z,63
2016-03-17T09:50:11.729Z,63
2016-03-17T09:51:11.527Z,63
2016-03-17T09:52:11.359Z,63
2016-03-17T09:53:11.049Z,63
2016-03-17T09:54:10.911Z,63
2016-03-17T09:55:10.711Z,63
2016-03-17T09:56:10.509Z,63
2016-03-17T09:57:10.325Z,62
2016-03-17T09:58:09.876Z,62
2016-03-17T09:59:09.503Z,62
2016-03-17T10:00:10.490Z,62
2016-03-17T10:01:10.023Z,62
2016-03-17T10:02:09.573Z,62
2016-03-17T10:03:08.889Z,62
2016-03-17T10:04:08.297Z,62
2016-03-17T10:05:07.472Z,62
2016-03-17T10:06:06.740Z,62
2016-03-17T10:07:06.008Z,62
2016-03-17T10:08:05.339Z,61
2016-03-17T10:09:04.420Z,61
2016-03-17T10:10:05.439Z,61
2016-03-17T10:11:04.456Z,61
2016-03-17T10:12:03.505Z,61
2016-03-17T10:13:02.572Z,61
2016-03-17T10:14:01.637Z,61
2016-03-17T10:15:00.623Z,61
2016-03-17T10:15:59.689Z,61
2016-03-17T10:16:58.441Z,61
2016-03-17T10:17:57.225Z,61
2016-03-17T10:18:56.321Z,61
2016-03-17T10:19:57.355Z,61
2016-03-17T10:20:56.124Z,61
2016-03-17T10:21:54.893Z,61
2016-03-17T10:22:53.692Z,61
2016-03-17T10:23:52.491Z,61
2016-03-17T10:24:51.275Z,61
2016-03-17T10:25:50.075Z,61
2016-03-17T10:26:49.093Z,61
2016-03-17T10:27:48.127Z,61
2016-03-17T10:28:47.224Z,61
2016-03-17T10:29:48.273Z,61
2016-03-17T10:30:47.260Z,61
2016-03-17T10:31:46.309Z,61
2016-03-17T10:32:45.345Z,61
2016-03-17T10:33:44.378Z,61
2016-03-17T10:34:43.411Z,61
2016-03-17T10:35:42.492Z,61
2016-03-17T10:36:41.495Z,61
2016-03-17T10:37:40.529Z,61
2016-03-17T10:38:39.626Z,61
2016-03-17T10:39:40.628Z,61
2016-03-17T10:40:39.662Z,61
2016-03-17T10:41:38.711Z,61
2016-03-17T10:42:37.761Z,62
2016-03-17T10:43:37.045Z,61
2016-03-17T10:44:36.080Z,61
2016-03-17T10:45:35.129Z,61
2016-03-17T10:46:34.178Z,61
2016-03-17T10:47:33.228Z,61
2016-03-17T10:48:32.309Z,61
2016-03-17T10:49:33.296Z,61
2016-03-17T10:50:32.346Z,61
2016-03-17T10:51:31.410Z,61
2016-03-17T10:52:30.429Z,61
2016-03-17T10:53:29.479Z,61
2016-03-17T10:54:28.497Z,61
2016-03-17T10:55:27.593Z,61
2016-03-17T10:56:26.737Z,61
2016-03-17T10:57:25.661Z,61
2016-03-17T10:58:24.739Z,61
2016-03-17T10:59:25.776Z,61
2016-03-17T11:00:24.823Z,61
2016-03-17T11:01:23.576Z,61
2016-03-17T11:02:22.609Z,61
2016-03-17T11:03:21.409Z,61
2016-03-17T11:04:20.209Z,61
2016-03-17T11:05:18.976Z,61
2016-03-17T11:06:17.792Z,60
2016-03-17T11:07:16.264Z,60
2016-03-17T11:08:14.845Z,60
2016-03-17T11:09:15.850Z,60
2016-03-17T11:10:14.383Z,60
2016-03-17T11:11:12.684Z,60
2016-03-17T11:12:10.936Z,60
2016-03-17T11:13:09.204Z,60
2016-03-17T11:14:07.520Z,59
2016-03-17T11:15:05.506Z,59
2016-03-17T11:16:03.557Z,59
2016-03-17T11:17:01.575Z,59
2016-03-17T11:17:59.655Z,59
2016-03-17T11:19:00.658Z,59
2016-03-17T11:19:58.786Z,59
2016-03-17T11:20:56.444Z,59
2016-03-17T11:21:54.229Z,59
2016-03-17T11:22:52.027Z,59
2016-03-17T11:23:49.766Z,59
2016-03-17T11:24:47.518Z,59
2016-03-17T11:25:45.349Z,59
2016-03-17T11:26:43.070Z,59
2016-03-17T11:27:40.886Z,59
2016-03-17T11:28:41.951Z,59
2016-03-17T11:29:39.672Z,59
2016-03-17T11:30:37.488Z,59
2016-03-17T11:31:35.209Z,59
2016-03-17T11:32:33.007Z,59
2016-03-17T11:33:30.776Z,59
2016-03-17T11:34:28.529Z,59
2016-03-17T11:35:26.310Z,59
2016-03-17T11:36:24.110Z,59
2016-03-17T11:37:21.910Z,58
2016-03-17T11:38:22.912Z,58
2016-03-17T11:39:24.478Z,58
2016-03-17T11:40:26.059Z,58
2016-03-17T11:41:27.626Z,58
2016-03-17T11:42:29.207Z,58
2016-03-17T11:43:30.772Z,58
2016-03-17T11:44:32.369Z,58
2016-03-17T11:45:33.918Z,58
2016-03-17T11:46:35.625Z,58
2016-03-17T11:47:37.127Z,58
2016-03-17T11:48:38.130Z,58
2016-03-17T11:49:39.695Z,58
2016-03-17T11:50:41.275Z,58
2016-03-17T11:51:42.997Z,58
2016-03-17T11:52:44.422Z,58
2016-03-17T11:53:45.986Z,58
2016-03-17T11:54:47.567Z,58
2016-03-17T11:55:49.132Z,58
2016-03-17T11:56:50.713Z,58
2016-03-17T11:57:52.341Z,58
2016-03-17T11:58:53.344Z,58
2016-03-17T11:59:54.941Z,58
2016-03-17T12:00:56.495Z,58
2016-03-17T12:01:58.060Z,58
2016-03-17T12:02:59.640Z,58
2016-03-17T12:04:01.221Z,58
2016-03-17T12:05:02.802Z,58
2016-03-17T12:06:04.351Z,58
2016-03-17T12:07:05.932Z,58
2016-03-17T12:08:07.576Z,58
2016-03-17T12:09:08.579Z,58
2016-03-17T12:10:10.160Z,58
2016-03-17T12:11:11.709Z,58
2016-03-17T12:12:13.039Z,58
2016-03-17T12:13:14.355Z,58
2016-03-17T12:14:15.702Z,58
2016-03-17T12:15:16.986Z,58
2016-03-17T12:16:18.331Z,58
2016-03-17T12:17:19.616Z,58
2016-03-17T12:18:20.994Z,58
2016-03-17T12:19:22.011Z,58
2016-03-17T12:20:23.327Z,58
2016-03-17T12:21:24.658Z,58
2016-03-17T12:22:25.958Z,58
2016-03-17T12:23:27.288Z,58
2016-03-17T12:24:28.603Z,58
2016-03-17T12:25:29.921Z,58
2016-03-17T12:26:31.252Z,58
2016-03-17T12:27:32.599Z,57
2016-03-17T12:28:33.726Z,58
2016-03-17T12:29:34.744Z,58
2016-03-17T12:30:36.013Z,58
2016-03-17T12:31:37.485Z,58
2016-03-17T12:32:38.690Z,57
2016-03-17T12:33:39.755Z,58
2016-03-17T12:34:41.117Z,57
2016-03-17T12:35:42.151Z,57
2016-03-17T12:36:43.232Z,57
2016-03-17T12:37:44.329Z,57
2016-03-17T12:38:45.409Z,57
2016-03-17T12:39:46.459Z,57
2016-03-17T12:40:47.478Z,57
2016-03-17T12:41:48.542Z,57
2016-03-17T12:42:50.218Z,57
2016-03-17T12:43:50.635Z,57
2016-03-17T12:44:51.688Z,57
2016-03-17T12:45:52.741Z,57
2016-03-17T12:46:53.793Z,58
2016-03-17T12:47:55.096Z,57
2016-03-17T12:48:56.201Z,57
2016-03-17T12:49:57.215Z,57
2016-03-17T12:50:58.308Z,57
2016-03-17T12:51:59.337Z,57
2016-03-17T12:53:00.413Z,57
2016-03-17T12:54:01.460Z,57
2016-03-17T12:55:02.523Z,57
2016-03-17T12:56:03.587Z,57
2016-03-17T12:57:04.636Z,57
2016-03-17T12:58:05.714Z,57
2016-03-17T12:59:06.826Z,57
2016-03-17T13:00:07.844Z,57
2016-03-17T13:01:09.017Z,57
2016-03-17T13:02:09.956Z,57
2016-03-17T13:03:11.021Z,58
2016-03-17T13:04:12.335Z,58
2016-03-17T13:05:13.666Z,58
2016-03-17T13:06:14.997Z,58
2016-03-17T13:07:16.289Z,58
2016-03-17T13:08:17.650Z,58
2016-03-17T13:09:18.981Z,58
2016-03-17T13:10:20.030Z,58
2016-03-17T13:11:21.252Z,58
2016-03-17T13:12:22.630Z,58
2016-03-17T13:13:23.945Z,58
2016-03-17T13:14:25.386Z,58
2016-03-17T13:15:26.591Z,58
2016-03-17T13:16:27.906Z,58
2016-03-17T13:17:29.221Z,58
2016-03-17T13:18:30.554Z,58
2016-03-17T13:19:31.979Z,58
2016-03-17T13:20:32.936Z,57
2016-03-17T13:21:33.985Z,58
2016-03-17T13:22:35.315Z,57
2016-03-17T13:23:36.380Z,57
2016-03-17T13:24:37.446Z,58
2016-03-17T13:25:38.761Z,58
2016-03-17T13:26:40.078Z,58
2016-03-17T13:27:41.424Z,58
2016-03-17T13:28:42.724Z,58
2016-03-17T13:29:44.101Z,58
2016-03-17T13:30:45.135Z,58
2016-03-17T13:31:46.419Z,58
2016-03-17T13:32:47.749Z,57
2016-03-17T13:33:48.815Z,58
2016-03-17T13:34:50.130Z,58
2016-03-17T13:35:51.398Z,57
2016-03-17T13:36:52.510Z,58
2016-03-17T13:37:53.951Z,57
2016-03-17T13:38:54.907Z,57
2016-03-17T13:39:56.035Z,57
2016-03-17T13:40:57.037Z,58
2016-03-17T13:41:58.352Z,57
2016-03-17T13:42:59.417Z,57
2016-03-17T13:44:00.498Z,57
2016-03-17T13:45:01.547Z,57
2016-03-17T13:46:02.660Z,57
2016-03-17T13:47:03.678Z,58
2016-03-17T13:48:05.009Z,58
2016-03-17T13:49:06.308Z,58
2016-03-17T13:50:07.717Z,58
2016-03-17T13:51:08.703Z,58
2016-03-17T13:52:10.050Z,58
2016-03-17T13:53:11.350Z,58
2016-03-17T13:54:12.666Z,58
2016-03-17T13:55:13.965Z,58
2016-03-17T13:56:15.280Z,58
2016-03-17T13:57:16.720Z,58
2016-03-17T13:58:17.927Z,58
2016-03-17T13:59:19.257Z,58
2016-03-17T14:00:20.635Z,58
2016-03-17T14:01:21.622Z,58
2016-03-17T14:02:22.952Z,57
2016-03-17T14:03:24.018Z,57
2016-03-17T14:04:25.098Z,57
2016-03-17T14:05:26.148Z,57
2016-03-17T14:06:27.213Z,57
2016-03-17T14:07:28.279Z,57
2016-03-17T14:08:29.344Z,57
2016-03-17T14:09:30.409Z,57
2016-03-17T14:10:31.537Z,57
2016-03-17T14:12:33.607Z,57
2016-03-17T14:13:34.673Z,57
2016-03-17T14:14:35.737Z,57
2016-03-17T14:15:36.850Z,57
2016-03-17T14:16:37.868Z,57
2016-03-17T14:17:39.073Z,57
2016-03-17T14:18:39.998Z,57
2016-03-17T14:19:41.173Z,57
2016-03-17T14:20:42.176Z,57